Time;durP1;ratioP1;P1;durP2;ratioP2;P2;SDS_P1;SDS_P2;PMS_P1;PMS_P2;Temp;Humidity;BMP_temperature;BMP_pressure;BME280_temperature;BME280_humidity;BME280_pressure;Samples;Min_cycle;Max_cycle;Signal;HPM_P1;HPM_P2
2022/08/10 00:02:34;;;;;;;;;;;;;;;29.76;36.66;100867.47;105022;1301;75554;-85
2022/08/10 00:04:59;;;;;;;;;;;;;;;29.75;36.86;100864.93;104888;1302;62086;-84
2022/08/10 00:07:25;;;;;;;;;;;;;;;29.75;36.69;100863.15;104859;1302;62185;-83
2022/08/10 00:09:50;;;;;;;;;;;;;;;29.75;36.84;100862.43;105012;1302;62123;-83
2022/08/10 00:12:18;;;;;;;;;;;;;;;29.75;36.84;100859.89;104917;1302;62106;-83
2022/08/10 00:14:44;;;;;;;;;;;;;;;29.75;36.71;100858.29;104870;1302;76038;-84
2022/08/10 00:17:09;;;;;;;;;;;;;;;29.75;36.65;100862.81;104874;1302;62100;-84
2022/08/10 00:19:35;;;;;;;;;;;;;;;29.75;36.62;100862.63;105037;1302;62126;-84
2022/08/10 00:22:00;;;;;;;;;;;;;;;29.74;36.73;100867.23;104858;1302;62147;-84
2022/08/10 00:24:25;;;;;;;;;;;;;;;29.75;36.80;100868.11;105029;1302;62188;-84
2022/08/10 00:26:52;;;;;;;;;;;;;;;29.74;36.63;100872.50;104893;1302;76364;-84
2022/08/10 00:29:18;;;;;;;;;;;;;;;29.74;36.73;100878.65;105045;1301;62145;-84
2022/08/10 00:31:43;;;;;;;;;;;;;;;29.74;36.80;100882.13;104897;1302;62803;-84
2022/08/10 00:34:08;;;;;;;;;;;;;;;29.74;36.91;100886.11;104851;1302;62142;-83
2022/08/10 00:36:34;;;;;;;;;;;;;;;29.74;36.67;100886.30;104731;1302;62230;-84
2022/08/10 00:38:59;;;;;;;;;;;;;;;29.74;36.75;100887.95;104923;1302;62200;-84
2022/08/10 00:41:25;;;;;;;;;;;;;;;29.74;36.74;100893.35;104898;1302;62247;-84
2022/08/10 00:43:50;;;;;;;;;;;;;;;29.74;36.87;100890.70;104870;1302;62110;-84
2022/08/10 00:46:16;;;;;;;;;;;;;;;29.74;36.92;100895.77;104746;1302;62150;-84
2022/08/10 00:48:41;;;;;;;;;;;;;;;29.74;36.83;100899.78;104901;1302;62066;-84
2022/08/10 00:51:07;;;;;;;;;;;;;;;29.73;36.97;100900.52;104911;1302;62249;-83
2022/08/10 00:53:32;;;;;;;;;;;;;;;29.74;36.69;100905.60;104746;1302;62084;-84
2022/08/10 00:55:58;;;;;;;;;;;;;;;29.73;36.78;100900.56;104941;1302;62191;-84
2022/08/10 00:58:23;;;;;;;;;;;;;;;29.73;36.99;100908.71;104909;1302;62133;-84
2022/08/10 01:00:50;;;;;;;;;;;;;;;29.73;36.82;100908.17;104915;1302;62219;-85
2022/08/10 01:03:15;;;;;;;;;;;;;;;29.73;36.88;100912.16;105079;1302;63259;-84
2022/08/10 01:05:44;;;;;;;;;;;;;;;29.73;36.70;100911.61;104918;1302;62132;-84
2022/08/10 01:08:10;;;;;;;;;;;;;;;29.73;36.98;100914.13;104889;1302;62201;-84
2022/08/10 01:10:38;;;;;;;;;;;;;;;29.73;36.84;100920.48;104905;1302;62053;-84
2022/08/10 01:13:23;;;;;;;;;;;;;;;29.74;36.84;100925.56;105114;1302;76418;-84
2022/08/10 01:16:06;;;;;;;;;;;;;;;29.73;36.92;100927.56;105126;1302;62703;-86
2022/08/10 01:18:33;;;;;;;;;;;;;;;29.73;36.80;100932.15;105023;1302;62012;-84
2022/08/10 01:21:18;;;;;;;;;;;;;;;29.73;36.79;100931.23;104871;1302;73894;-84
2022/08/10 01:23:58;;;;;;;;;;;;;;;29.73;36.96;100929.80;105117;1302;76573;-84
2022/08/10 01:26:24;;;;;;;;;;;;;;;29.73;36.97;100937.58;105040;1302;62106;-84
2022/08/10 01:29:02;;;;;;;;;;;;;;;29.73;36.86;100937.79;104878;1302;62068;-85
2022/08/10 01:31:29;;;;;;;;;;;;;;;29.73;36.90;100936.70;104995;1302;73945;-84
2022/08/10 01:33:56;;;;;;;;;;;;;;;29.72;36.76;100937.06;105030;1302;75668;-84
2022/08/10 01:36:26;;;;;;;;;;;;;;;29.72;36.97;100937.52;104972;1302;61990;-84
2022/08/10 01:38:52;;;;;;;;;;;;;;;29.72;37.02;100936.56;105005;1301;62190;-84
2022/08/10 01:41:18;;;;;;;;;;;;;;;29.72;36.95;100936.23;105012;1302;62074;-84
2022/08/10 01:43:45;;;;;;;;;;;;;;;29.72;36.90;100931.91;105026;1302;61947;-84
2022/08/10 01:46:11;;;;;;;;;;;;;;;29.72;36.82;100925.75;105017;1302;62136;-84
2022/08/10 01:48:45;;;;;;;;;;;;;;;29.71;36.97;100924.32;104884;1302;62133;-84
2022/08/10 01:51:21;;;;;;;;;;;;;;;29.72;36.93;100919.77;105023;1302;73056;-85
2022/08/10 01:53:50;;;;;;;;;;;;;;;29.71;36.80;100923.65;104866;1302;75560;-84
2022/08/10 01:56:18;;;;;;;;;;;;;;;29.71;36.83;100924.39;105010;1302;62225;-84
2022/08/10 01:58:43;;;;;;;;;;;;;;;29.71;36.80;100930.20;104887;1302;61968;-84
2022/08/10 02:01:10;;;;;;;;;;;;;;;29.71;36.92;100931.46;105146;1302;62123;-84
2022/08/10 02:03:36;;;;;;;;;;;;;;;29.71;36.76;100934.76;104887;1302;62108;-84
2022/08/10 02:06:01;;;;;;;;;;;;;;;29.70;37.06;100938.60;104861;1302;62113;-84
2022/08/10 02:08:26;;;;;;;;;;;;;;;29.70;36.91;100943.50;105021;1302;62231;-84
2022/08/10 02:10:52;;;;;;;;;;;;;;;29.70;37.05;100953.86;104923;1302;62056;-84
2022/08/10 02:13:17;;;;;;;;;;;;;;;29.70;36.77;100957.52;105014;1302;73671;-85
2022/08/10 02:15:44;;;;;;;;;;;;;;;29.70;37.03;100958.94;104836;1302;62230;-84
2022/08/10 02:18:09;;;;;;;;;;;;;;;29.70;37.08;100959.35;104891;1302;62097;-85
2022/08/10 02:20:53;;;;;;;;;;;;;;;29.70;36.98;100963.70;105039;1302;62114;-83
2022/08/10 02:23:18;;;;;;;;;;;;;;;29.69;36.79;100963.19;105001;1302;72804;-84
2022/08/10 02:25:44;;;;;;;;;;;;;;;29.70;36.99;100966.59;105143;1302;62203;-83
2022/08/10 02:28:16;;;;;;;;;;;;;;;29.70;36.95;100969.33;104879;1302;62083;-85
2022/08/10 02:30:42;;;;;;;;;;;;;;;29.69;37.03;100966.29;104882;1302;62190;-84
2022/08/10 02:33:07;;;;;;;;;;;;;;;29.69;37.11;100967.91;104763;1302;62147;-84
2022/08/10 02:35:32;;;;;;;;;;;;;;;29.69;37.16;100973.01;105007;1302;62674;-85
2022/08/10 02:38:06;;;;;;;;;;;;;;;29.69;37.00;100971.92;104874;1302;63073;-84
2022/08/10 02:40:34;;;;;;;;;;;;;;;29.69;37.11;100973.02;104880;1302;63355;-84
2022/08/10 02:43:08;;;;;;;;;;;;;;;29.69;36.98;100974.50;104900;1302;75438;-85
2022/08/10 02:45:41;;;;;;;;;;;;;;;29.69;37.13;100976.67;104719;1303;76854;-84
2022/08/10 02:48:34;;;;;;;;;;;;;;;29.69;37.15;100982.50;105010;1302;61995;-85
2022/08/10 03:01:48;;;;;;;3.30;2.10;;;;;;;30.27;36.69;100971.97;104005;1312;615193;-81
2022/08/10 03:04:18;;;;;;;3.60;2.10;;;;;;;30.26;36.84;100972.92;103468;1312;1286100;-81
2022/08/10 03:06:46;;;;;;;3.30;2.10;;;;;;;30.22;36.75;100979.58;104399;1312;62679;-81
2022/08/10 03:09:13;;;;;;;2.70;1.90;;;;;;;30.17;36.81;100987.16;104320;1312;60600;-82
2022/08/10 03:11:38;;;;;;;3.50;1.70;;;;;;;30.12;36.85;100988.06;104374;1312;59330;-82
2022/08/10 03:14:04;;;;;;;2.50;1.90;;;;;;;30.08;36.86;100989.63;104355;1312;59313;-81
2022/08/10 03:16:30;;;;;;;3.80;1.70;;;;;;;30.04;36.92;100989.30;104352;1312;59459;-81
2022/08/10 03:18:58;;;;;;;3.00;1.80;;;;;;;30.01;37.04;100994.15;104429;1312;59313;-82
2022/08/10 03:21:23;;;;;;;2.50;1.90;;;;;;;29.98;36.88;100997.75;104454;1312;59290;-81
2022/08/10 03:23:49;;;;;;;2.90;1.80;;;;;;;29.95;36.97;100998.08;104323;1312;59297;-81
2022/08/10 03:26:15;;;;;;;2.80;1.90;;;;;;;29.92;37.10;101002.90;104439;1312;59781;-81
2022/08/10 03:28:41;;;;;;;3.60;2.00;;;;;;;29.89;37.08;101003.16;104380;1312;59682;-81
2022/08/10 03:31:07;;;;;;;3.10;1.80;;;;;;;29.88;37.15;101006.25;104410;1312;59668;-81
2022/08/10 03:33:34;;;;;;;3.50;2.00;;;;;;;29.86;37.31;101009.52;104434;1312;59278;-81
2022/08/10 03:36:00;;;;;;;2.90;1.90;;;;;;;29.84;37.02;101014.41;104525;1309;75213;-81
2022/08/10 03:38:25;;;;;;;2.60;1.80;;;;;;;29.82;37.28;101011.34;104537;1309;59689;-81
2022/08/10 03:40:51;;;;;;;3.50;2.10;;;;;;;29.81;37.26;101015.64;104512;1309;59650;-81
2022/08/10 03:43:18;;;;;;;3.20;2.00;;;;;;;29.79;37.27;101014.38;104397;1309;59679;-82
2022/08/10 03:45:46;;;;;;;3.80;1.90;;;;;;;29.78;37.28;101017.80;104502;1309;59803;-81
2022/08/10 03:48:12;;;;;;;6.50;2.20;;;;;;;29.75;37.38;101015.48;104750;1308;61652;-81
2022/08/10 03:50:38;;;;;;;5.20;3.20;;;;;;;29.73;37.28;101016.63;104665;1308;59735;-81
2022/08/10 03:53:03;;;;;;;5.00;2.90;;;;;;;29.72;37.51;101014.17;104547;1309;59752;-81
2022/08/10 03:55:29;;;;;;;5.90;2.40;;;;;;;29.71;37.09;101016.35;104624;1309;59707;-81
2022/08/10 03:57:54;;;;;;;4.70;2.10;;;;;;;29.69;37.38;101012.90;104664;1308;59675;-81
2022/08/10 04:00:20;;;;;;;4.80;2.60;;;;;;;29.68;37.29;101018.44;104531;1309;61681;-81
2022/08/10 04:02:46;;;;;;;4.40;2.00;;;;;;;29.66;37.27;101022.06;104649;1307;59621;-81
2022/08/10 04:05:15;;;;;;;5.00;2.10;;;;;;;29.65;37.34;101030.35;104614;1309;59744;-81
2022/08/10 04:07:44;;;;;;;3.70;2.10;;;;;;;29.64;37.25;101033.36;104519;1309;74284;-81
2022/08/10 04:10:10;;;;;;;4.30;2.50;;;;;;;29.63;37.23;101030.59;104627;1308;60397;-82
2022/08/10 04:12:35;;;;;;;3.60;2.40;;;;;;;29.62;37.39;101036.70;104557;1309;59861;-82
2022/08/10 04:15:01;;;;;;;4.20;2.30;;;;;;;29.61;37.11;101035.73;104541;1308;59689;-82
2022/08/10 04:17:27;;;;;;;4.20;2.30;;;;;;;29.60;37.44;101034.00;104620;1308;59725;-82
2022/08/10 04:19:52;;;;;;;6.10;2.50;;;;;;;29.59;37.15;101037.90;104602;1309;59644;-82
2022/08/10 04:22:20;;;;;;;3.40;1.90;;;;;;;29.58;37.31;101038.38;104615;1309;60230;-82
2022/08/10 04:24:47;;;;;;;4.10;2.30;;;;;;;29.58;37.24;101042.17;104490;1308;61554;-80
2022/08/10 04:27:13;;;;;;;5.90;2.20;;;;;;;29.57;37.38;101043.16;104598;1307;72657;-81
2022/08/10 04:29:38;;;;;;;4.40;2.20;;;;;;;29.57;37.42;101046.13;104581;1309;59656;-81
2022/08/10 04:32:04;;;;;;;4.60;2.10;;;;;;;29.55;37.24;101045.73;104529;1309;59806;-81
2022/08/10 04:34:33;;;;;;;3.70;1.90;;;;;;;29.55;37.33;101052.09;104496;1309;59654;-80
2022/08/10 04:37:00;;;;;;;4.50;2.00;;;;;;;29.55;37.19;101053.92;104473;1309;59656;-81
2022/08/10 04:39:26;;;;;;;5.90;2.10;;;;;;;29.54;37.34;101052.56;104465;1309;73313;-81
2022/08/10 04:41:52;;;;;;;4.40;2.10;;;;;;;29.53;37.26;101052.80;104473;1309;59662;-81
2022/08/10 04:44:17;;;;;;;5.80;2.10;;;;;;;29.53;37.14;101052.99;104601;1309;60860;-81
2022/08/10 04:46:43;;;;;;;3.80;1.80;;;;;;;29.53;37.38;101049.25;104511;1308;59790;-81
2022/08/10 04:49:08;;;;;;;3.10;2.00;;;;;;;29.52;37.20;101047.27;104516;1308;59791;-82
2022/08/10 04:51:34;;;;;;;5.00;2.30;;;;;;;29.52;37.21;101050.61;104594;1308;59937;-81
2022/08/10 04:54:00;;;;;;;5.10;2.00;;;;;;;29.52;37.21;101050.77;104611;1309;60422;-81
2022/08/10 04:56:26;;;;;;;3.60;1.90;;;;;;;29.51;37.24;101041.59;104604;1308;59661;-81
2022/08/10 04:58:51;;;;;;;3.90;2.30;;;;;;;29.52;37.28;101039.05;104597;1309;78584;-81
2022/08/10 05:01:17;;;;;;;3.90;1.70;;;;;;;29.50;37.22;101034.62;104509;1309;59568;-81
2022/08/10 05:03:43;;;;;;;3.40;1.90;;;;;;;29.49;37.08;101035.29;104513;1309;60084;-81
2022/08/10 05:06:08;;;;;;;4.00;2.00;;;;;;;29.46;37.15;101033.05;104569;1309;61448;-81
2022/08/10 05:08:34;;;;;;;3.70;2.10;;;;;;;29.44;37.05;101032.92;104535;1309;59748;-80
2022/08/10 05:11:00;;;;;;;5.70;2.20;;;;;;;29.42;37.07;101031.44;104522;1309;59643;-80
2022/08/10 05:13:25;;;;;;;6.20;2.20;;;;;;;29.42;37.08;101038.06;104571;1309;59800;-80
2022/08/10 05:15:52;;;;;;;6.20;2.20;;;;;;;29.41;37.16;101043.80;104569;1309;59755;-80
2022/08/10 05:18:18;;;;;;;4.30;2.30;;;;;;;29.39;37.22;101050.96;104563;1309;59848;-81
2022/08/10 05:20:43;;;;;;;3.80;2.20;;;;;;;29.39;37.18;101051.02;104615;1308;59655;-81
2022/08/10 05:23:09;;;;;;;6.90;2.20;;;;;;;29.38;37.02;101048.02;104599;1308;73915;-81
2022/08/10 05:25:35;;;;;;;3.30;2.20;;;;;;;29.38;37.35;101051.33;104499;1308;60918;-81
2022/08/10 05:28:01;;;;;;;5.50;2.30;;;;;;;29.37;37.32;101047.44;104397;1309;59676;-81
2022/08/10 05:30:26;;;;;;;4.30;2.10;;;;;;;29.36;37.07;101047.55;104473;1308;59675;-81
2022/08/10 05:32:52;;;;;;;5.50;2.10;;;;;;;29.36;37.30;101043.19;104560;1308;59641;-81
2022/08/10 05:35:18;;;;;;;4.20;2.20;;;;;;;29.35;37.08;101048.53;104616;1309;59692;-80
2022/08/10 05:37:43;;;;;;;6.40;2.00;;;;;;;29.36;37.23;101045.91;104548;1309;59698;-81
2022/08/10 05:40:09;;;;;;;15.50;2.30;;;;;;;29.36;37.05;101045.02;104466;1309;59866;-81
2022/08/10 05:42:35;;;;;;;4.80;2.20;;;;;;;29.36;37.37;101047.00;104499;1309;60477;-81
2022/08/10 05:45:00;;;;;;;10.80;2.30;;;;;;;29.35;37.19;101049.27;104475;1309;59751;-80
2022/08/10 05:47:26;;;;;;;6.00;2.50;;;;;;;29.34;37.18;101044.42;104456;1309;59859;-80
2022/08/10 05:49:52;;;;;;;10.30;2.20;;;;;;;29.34;37.05;101043.36;104526;1309;59683;-81
2022/08/10 05:52:18;;;;;;;8.70;2.40;;;;;;;29.35;37.18;101046.75;104471;1309;60330;-81
2022/08/10 05:54:44;;;;;;;6.20;2.10;;;;;;;29.36;37.07;101047.00;104371;1309;59754;-81
2022/08/10 05:57:10;;;;;;;6.20;2.40;;;;;;;29.36;37.03;101045.39;104569;1308;59598;-80
2022/08/10 05:59:37;;;;;;;9.20;2.20;;;;;;;29.36;37.09;101048.77;104500;1309;59779;-80
2022/08/10 06:02:03;;;;;;;5.50;2.20;;;;;;;29.37;36.99;101048.15;104515;1308;59528;-80
2022/08/10 06:04:32;;;;;;;6.30;2.30;;;;;;;29.38;37.18;101048.39;104431;1308;59661;-80
2022/08/10 06:06:57;;;;;;;5.30;2.50;;;;;;;29.39;36.95;101045.41;104432;1307;71679;-80
2022/08/10 06:09:23;;;;;;;6.30;2.40;;;;;;;29.40;36.94;101048.94;104306;1309;59667;-80
2022/08/10 06:11:50;;;;;;;5.70;2.30;;;;;;;29.41;36.87;101049.69;104454;1309;59557;-80
2022/08/10 06:17:01;;;;;;;10.10;2.60;;;;;;;29.44;37.01;101051.27;104505;1309;72226;-81
2022/08/10 06:19:26;;;;;;;6.70;2.50;;;;;;;29.44;36.77;101052.83;104531;1309;60381;-81
2022/08/10 06:21:52;;;;;;;5.60;2.80;;;;;;;29.45;36.92;101054.27;104519;1308;59649;-81
2022/08/10 06:24:22;;;;;;;7.80;2.70;;;;;;;29.45;36.91;101056.92;104370;1309;59704;-80
2022/08/10 06:26:48;;;;;;;4.50;2.50;;;;;;;29.46;36.94;101058.52;104386;1309;74053;-80
2022/08/10 06:29:14;;;;;;;7.60;3.10;;;;;;;29.46;37.01;101056.45;104412;1309;59791;-80
2022/08/10 06:31:44;;;;;;;4.80;2.40;;;;;;;29.48;36.85;101059.92;104387;1307;61734;-80
2022/08/10 06:34:10;;;;;;;7.30;2.60;;;;;;;29.48;36.97;101057.52;104305;1308;61723;-81
2022/08/10 06:36:36;;;;;;;7.50;2.50;;;;;;;29.49;36.88;101057.42;104288;1308;59304;-81
2022/08/10 06:39:02;;;;;;;6.50;2.50;;;;;;;29.50;36.98;101058.63;104388;1309;59786;-82
2022/08/10 06:41:28;;;;;;;6.00;2.70;;;;;;;29.51;36.78;101060.09;104336;1309;59649;-81
2022/08/10 06:44:05;;;;;;;9.40;2.90;;;;;;;29.53;36.66;101063.59;104516;1309;59658;-80
2022/08/10 06:46:33;;;;;;;7.90;2.50;;;;;;;29.54;36.62;101055.52;104515;1309;73221;-81
2022/08/10 06:48:59;;;;;;;8.10;2.70;;;;;;;29.54;36.58;101060.18;104323;1308;75401;-80
2022/08/10 06:51:28;;;;;;;6.10;2.20;;;;;;;29.55;36.63;101061.30;104243;1309;59657;-80
2022/08/10 06:53:55;;;;;;;;;;;;;;;29.56;36.46;101061.89;104475;1308;61478;-80
2022/08/10 06:56:22;;;;;;;5.80;2.50;;;;;;;29.55;36.84;101061.35;104440;1309;75059;-81
2022/08/10 06:58:57;;;;;;;5.90;2.20;;;;;;;29.57;36.59;101061.83;104717;1307;74360;-82
2022/08/10 07:01:25;;;;;;;5.30;2.50;;;;;;;29.58;36.58;101063.50;104402;1308;61648;-81
2022/08/10 07:04:06;;;;;;;5.20;2.40;;;;;;;29.60;36.30;101069.56;104316;1309;60327;-80
2022/08/10 07:06:32;;;;;;;4.80;2.30;;;;;;;29.60;36.46;101068.44;104445;1309;74047;-80
2022/08/10 07:08:59;;;;;;;5.20;2.30;;;;;;;29.61;36.40;101067.66;104457;1309;60313;-80
2022/08/10 07:11:25;;;;;;;7.60;2.70;;;;;;;29.61;36.36;101065.11;104528;1309;60446;-80
2022/08/10 07:13:50;;;;;;;5.40;2.30;;;;;;;29.59;36.38;101064.70;104524;1309;60459;-80
2022/08/10 07:16:16;;;;;;;3.90;2.30;;;;;;;29.58;36.33;101066.93;104461;1309;60481;-80
2022/08/10 07:18:42;;;;;;;5.80;2.50;;;;;;;29.58;36.23;101069.21;104300;1309;60419;-80
2022/08/10 07:21:07;;;;;;;6.70;2.20;;;;;;;29.56;36.30;101072.47;104474;1309;60374;-80
2022/08/10 07:23:33;;;;;;;5.90;2.40;;;;;;;29.54;36.38;101071.19;104513;1308;60594;-80
2022/08/10 07:25:59;;;;;;;5.00;2.40;;;;;;;29.53;36.29;101074.55;104395;1309;62575;-81
2022/08/10 07:28:25;;;;;;;4.50;2.30;;;;;;;29.53;36.24;101074.44;104403;1309;60481;-80
2022/08/10 07:30:51;;;;;;;7.30;2.60;;;;;;;29.52;36.33;101073.95;104396;1309;60577;-81
2022/08/10 07:33:18;;;;;;;6.10;2.60;;;;;;;29.51;36.22;101069.20;104332;1309;60591;-81
2022/08/10 07:35:43;;;;;;;5.00;2.40;;;;;;;29.51;36.33;101072.80;104465;1308;60577;-81
2022/08/10 07:38:19;;;;;;;5.40;2.40;;;;;;;29.49;36.15;101073.73;104440;1309;61089;-81
2022/08/10 07:40:46;;;;;;;4.50;2.50;;;;;;;29.46;36.20;101071.48;104509;1309;74025;-81
2022/08/10 07:43:11;;;;;;;6.30;2.70;;;;;;;29.45;36.22;101073.77;104392;1309;60453;-80
2022/08/10 07:45:37;;;;;;;5.10;2.60;;;;;;;29.44;36.40;101078.23;104330;1309;60545;-81
2022/08/10 07:48:11;;;;;;;4.80;2.90;;;;;;;29.44;36.48;101075.14;104392;1309;60434;-81
2022/08/10 07:50:38;;;;;;;4.70;2.50;;;;;;;29.46;36.55;101078.06;104438;1309;76132;-81
2022/08/10 07:53:05;;;;;;;4.40;2.70;;;;;;;29.46;36.51;101078.05;104518;1309;60376;-81
2022/08/10 07:55:31;;;;;;;3.90;2.60;;;;;;;29.46;36.47;101082.44;104425;1308;62466;-81
2022/08/10 07:57:57;;;;;;;6.00;3.10;;;;;;;29.45;36.40;101084.27;104385;1309;61046;-80
2022/08/10 08:00:22;;;;;;;4.50;2.80;;;;;;;29.44;36.41;101091.48;104414;1308;60392;-80
2022/08/10 08:02:56;;;;;;;4.80;3.00;;;;;;;29.43;36.36;101087.90;104263;1309;60781;-81
2022/08/10 08:05:24;;;;;;;7.00;2.90;;;;;;;29.41;36.30;101085.44;104392;1308;60572;-81
2022/08/10 08:07:51;;;;;;;4.20;2.70;;;;;;;29.41;36.37;101093.09;104536;1308;72950;-81
2022/08/10 08:10:16;;;;;;;7.00;3.00;;;;;;;29.41;36.51;101086.56;104443;1309;60367;-81
2022/08/10 08:12:43;;;;;;;6.50;2.80;;;;;;;29.41;36.29;101089.29;104434;1309;62521;-81
2022/08/10 08:15:10;;;;;;;5.30;2.90;;;;;;;29.41;36.23;101087.28;104348;1309;60535;-81
2022/08/10 08:17:36;;;;;;;4.40;3.00;;;;;;;29.41;36.14;101081.95;104501;1308;60522;-81
2022/08/10 08:20:02;;;;;;;7.20;3.10;;;;;;;29.40;36.45;101075.89;104436;1308;60599;-81
2022/08/10 08:22:27;;;;;;;5.00;2.70;;;;;;;29.40;36.33;101080.78;104587;1309;60603;-81
2022/08/10 08:24:54;;;;;;;4.70;2.70;;;;;;;29.40;36.25;101080.41;104497;1309;60482;-81
2022/08/10 08:27:21;;;;;;;7.80;2.90;;;;;;;29.39;36.26;101076.89;104329;1310;60496;-81
2022/08/10 08:29:47;;;;;;;4.60;2.70;;;;;;;29.39;36.20;101084.91;104464;1309;60351;-81
2022/08/10 08:32:18;;;;;;;5.60;2.70;;;;;;;29.40;36.26;101083.22;104507;1309;60443;-81
2022/08/10 08:34:45;;;;;;;7.10;2.60;;;;;;;29.40;36.01;101085.17;104388;1309;61594;-82
2022/08/10 08:37:11;;;;;;;4.70;2.60;;;;;;;29.40;36.32;101087.88;104409;1309;60453;-82
2022/08/10 08:39:36;;;;;;;7.30;2.40;;;;;;;29.40;36.19;101084.21;104528;1309;60494;-81
2022/08/10 08:42:40;;;;;;;4.50;2.40;;;;;;;29.40;36.06;101091.69;104588;1308;60516;-81
2022/08/10 08:45:39;;;;;;;3.90;2.30;;;;;;;29.38;36.05;101087.88;104277;1312;60425;-81
2022/08/10 08:48:29;;;;;;;3.90;2.20;;;;;;;29.38;35.94;101092.64;104336;1312;72787;-81
2022/08/10 08:51:27;;;;;;;6.20;2.20;;;;;;;29.38;35.90;101092.25;104171;1312;73657;-81
2022/08/10 08:54:11;;;;;;;4.00;2.50;;;;;;;29.37;35.84;101091.06;103836;1313;61903;-82
2022/08/10 08:56:53;;;;;;;5.70;2.30;;;;;;;29.38;36.02;101088.98;104204;1313;61602;-82
2022/08/10 08:59:47;;;;;;;4.70;2.40;;;;;;;29.39;36.05;101091.04;104163;1313;72876;-82
2022/08/10 09:02:50;;;;;;;8.00;2.50;;;;;;;29.40;35.78;101101.16;104190;1312;75053;-82
2022/08/10 09:05:38;;;;;;;4.00;2.40;;;;;;;29.39;35.88;101098.64;104324;1312;60381;-81
2022/08/10 09:08:22;;;;;;;;;;;;;;;29.40;35.77;101100.08;104328;1310;60446;-81
2022/08/10 09:11:00;;;;;;;5.40;2.40;;;;;;;29.38;35.90;101096.06;104319;1312;73963;-81
2022/08/10 09:13:31;;;;;;;6.20;2.40;;;;;;;29.39;35.58;101097.59;104225;1312;74878;-81
2022/08/10 09:16:27;;;;;;;4.70;2.50;;;;;;;29.40;35.69;101097.36;104331;1312;61496;-81
2022/08/10 09:19:05;;;;;;;3.70;2.00;;;;;;;29.39;35.85;101100.27;104285;1312;60561;-81
2022/08/10 09:21:56;;;;;;;4.80;2.30;;;;;;;29.40;35.58;101097.84;104348;1308;74172;-81
2022/08/10 09:24:49;;;;;;;6.70;2.30;;;;;;;29.41;35.44;101101.96;104557;1307;74816;-81
2022/08/10 09:27:19;;;;;;;3.60;2.00;;;;;;;29.41;35.50;101101.36;104565;1309;61461;-81
2022/08/10 09:29:56;;;;;;;4.50;2.20;;;;;;;29.42;35.53;101102.17;104504;1309;60671;-80
2022/08/10 09:32:33;;;;;;;3.60;2.10;;;;;;;29.42;35.43;101099.09;104570;1309;72783;-80
2022/08/10 09:35:19;;;;;;;4.60;2.30;;;;;;;29.42;35.26;101099.59;104528;1309;74117;-80
2022/08/10 09:38:00;;;;;;;4.10;2.30;;;;;;;29.42;35.31;101099.84;104457;1309;60488;-82
2022/08/10 09:40:34;;;;;;;5.50;2.10;;;;;;;29.42;35.30;101097.46;104453;1308;60484;-83
2022/08/10 09:43:12;;;;;;;4.50;2.40;;;;;;;29.43;35.13;101093.21;104589;1309;72696;-81
2022/08/10 09:45:49;;;;;;;5.20;2.30;;;;;;;29.42;34.96;101092.53;104554;1307;74909;-81
2022/08/10 09:48:24;;;;;;;6.10;2.20;;;;;;;29.42;34.80;101094.87;104502;1309;60415;-81
2022/08/10 09:50:59;;;;;;;6.60;2.20;;;;;;;29.43;34.70;101091.45;104712;1309;60483;-81
2022/08/10 09:54:04;;;;;;;6.00;2.20;;;;;;;29.41;34.64;101087.01;104450;1307;72574;-81
2022/08/10 09:56:44;;;;;;;4.10;2.00;;;;;;;29.39;34.52;101085.08;104361;1308;74945;-81
2022/08/10 09:59:20;;;;;;;5.00;2.00;;;;;;;29.37;34.31;101086.73;104407;1309;60727;-81
2022/08/10 10:01:49;;;;;;;6.40;2.40;;;;;;;29.36;34.53;101088.33;104452;1307;61569;-80
2022/08/10 10:04:21;;;;;;;6.70;2.20;;;;;;;29.36;34.40;101092.82;104509;1309;74314;-81
2022/08/10 10:06:49;;;;;;;3.90;2.20;;;;;;;29.35;34.24;101087.33;104542;1308;75021;-82
2022/08/10 10:09:33;;;;;;;9.60;2.50;;;;;;;29.36;34.08;101087.08;104555;1309;60382;-81
2022/08/10 10:12:10;;;;;;;5.50;2.30;;;;;;;29.37;34.30;101085.30;104419;1309;60579;-81
2022/08/10 10:15:20;;;;;;;5.50;2.40;;;;;;;29.38;34.32;101088.06;104457;1309;72484;-82
2022/08/10 10:18:17;;;;;;;3.90;2.30;;;;;;;29.39;34.26;101091.43;104449;1308;74795;-81
2022/08/10 10:21:12;;;;;;;6.30;2.10;;;;;;;29.39;34.47;101084.16;104481;1307;61159;-81
2022/08/10 10:23:46;;;;;;;6.30;2.30;;;;;;;29.39;34.10;101083.11;104517;1309;61493;-81
2022/08/10 10:26:19;;;;;;;5.90;2.30;;;;;;;29.40;34.44;101080.13;104593;1309;73704;-81
2022/08/10 10:29:17;;;;;;;6.90;2.30;;;;;;;29.42;34.57;101079.52;104556;1309;74281;-81
2022/08/10 10:31:50;;;;;;;6.30;2.40;;;;;;;29.43;34.45;101078.30;104408;1309;61413;-81
2022/08/10 10:34:46;;;;;;;6.70;2.50;;;;;;;29.46;34.57;101074.11;104770;1308;62617;-81
2022/08/10 10:37:12;;;;;;;10.20;3.00;;;;;;;29.47;34.40;101074.09;104372;1308;72791;-82
2022/08/10 10:39:39;;;;;;;6.30;2.10;;;;;;;29.49;34.40;101073.39;104396;1309;60561;-81
2022/08/10 10:42:34;;;;;;;6.90;2.20;;;;;;;29.51;34.38;101063.93;104444;1308;59183;-81
2022/08/10 10:45:18;;;;;;;3.60;2.10;;;;;;;29.53;34.43;101061.05;104362;1309;60485;-81
2022/08/10 10:48:06;;;;;;;5.00;2.20;;;;;;;29.54;34.36;101061.80;104323;1309;71748;-81
2022/08/10 10:50:57;;;;;;;6.10;2.40;;;;;;;29.55;34.50;101059.14;104957;1308;75237;-82
2022/08/10 10:53:35;;;;;;;7.50;2.30;;;;;;;29.57;34.47;101059.52;104960;1307;61310;-82
2022/08/10 10:56:13;;;;;;;6.10;2.40;;;;;;;29.59;34.46;101062.73;104450;1309;60534;-82
2022/08/10 10:58:57;;;;;;;5.00;2.20;;;;;;;29.60;34.55;101061.36;104527;1309;73809;-81
2022/08/10 11:02:02;;;;;;;4.50;2.00;;;;;;;29.61;34.57;101061.06;104542;1307;74969;-81
2022/08/10 11:04:40;;;;;;;9.30;2.20;;;;;;;29.62;34.41;101054.67;104189;1314;61629;-81
2022/08/10 11:07:11;;;;;;;4.40;2.20;;;;;;;29.63;34.42;101049.31;104241;1315;61391;-81
2022/08/10 11:09:41;;;;;;;6.50;2.40;;;;;;;29.63;34.22;101047.66;104248;1315;72798;-81
2022/08/10 11:12:19;;;;;;;6.10;2.00;;;;;;;29.63;34.50;101044.36;104242;1315;74358;-81
2022/08/10 11:15:08;;;;;;;8.00;2.50;;;;;;;29.64;34.38;101043.58;104237;1315;60711;-81
2022/08/10 11:18:06;;;;;;;5.30;2.30;;;;;;;29.64;34.33;101037.55;104137;1315;60406;-81
2022/08/10 11:20:42;;;;;;;5.60;2.30;;;;;;;29.64;34.57;101038.52;103473;1320;74144;-81
2022/08/10 11:23:38;;;;;;;4.30;2.30;;;;;;;29.64;34.52;101037.25;103495;1319;74960;-81
2022/08/10 11:26:37;;;;;;;6.10;2.30;;;;;;;29.64;34.66;101036.34;103511;1321;60543;-82
2022/08/10 11:29:14;;;;;;;5.60;2.10;;;;;;;29.64;34.78;101034.89;102725;1329;61872;-82
2022/08/10 11:32:16;;;;;;;6.20;2.20;;;;;;;29.64;34.77;101035.08;102780;1329;73842;-81
2022/08/10 11:35:09;;;;;;;4.90;2.40;;;;;;;29.64;34.90;101035.25;102654;1329;74963;-80
2022/08/10 11:37:44;;;;;;;5.90;2.30;;;;;;;29.64;34.94;101036.34;102702;1329;61609;-81
2022/08/10 11:40:17;;;;;;;5.30;2.40;;;;;;;29.65;35.01;101032.80;102736;1329;60421;-82
2022/08/10 11:43:09;;;;;;;5.60;2.40;;;;;;;29.65;34.90;101027.66;103174;1321;73748;-81
2022/08/10 11:45:36;;;;;;;4.20;2.10;;;;;;;29.65;35.08;101031.50;103167;1320;74770;-80
2022/08/10 11:48:39;;;;;;;4.90;2.30;;;;;;;29.65;34.95;101021.14;103384;1320;61482;-81
2022/08/10 11:51:18;;;;;;;5.00;2.30;;;;;;;29.65;35.06;101022.23;103260;1320;60412;-81
2022/08/10 11:54:09;;;;;;;5.20;2.20;;;;;;;29.65;35.13;101021.64;103186;1320;72862;-81
2022/08/10 11:56:42;;;;;;;5.20;2.60;;;;;;;29.66;35.13;101017.23;103424;1318;75333;-80
2022/08/10 12:01:52;;;;;;;3.50;2.10;;;;;;;29.66;35.20;101018.63;103796;1315;60538;-80
2022/08/10 12:04:17;;;;;;;4.50;2.20;;;;;;;29.67;35.29;101014.39;104119;1315;60450;-80
2022/08/10 12:06:43;;;;;;;5.50;2.30;;;;;;;29.67;35.54;101012.35;104411;1312;60446;-80
2022/08/10 12:09:10;;;;;;;7.50;2.30;;;;;;;29.67;35.62;101006.42;104638;1309;60386;-80
2022/08/10 12:11:35;;;;;;;4.40;2.30;;;;;;;29.68;35.29;101004.19;104543;1309;60526;-82